NCAR-RAP Real-Time Weather Data

Output produced by METARs form (19 June 2019  10:40 UTC)
found at http://weather.rap.ucar.edu/surface/
 
KHTL 190953Z AUTO 00000KT 10SM CLR 14/12 A2983 RMK AO2 SLP097 T01390117
KHTL 190853Z AUTO 09003KT 10SM SCT060 SCT075 BKN100 14/12 A2983 RMK AO2 SLP099 T01390117 58014
KHTL 190753Z AUTO 07004KT 10SM BKN070 OVC080 15/12 A2985 RMK AO2 SLP105 T01500122
KHTL 190653Z AUTO 05003KT 10SM FEW030 SCT037 OVC055 16/12 A2986 RMK AO2 SLP109 T01610122
KHTL 190553Z AUTO 00000KT 10SM OVC060 16/12 A2988 RMK AO2 SLP114 T01610122 10228 20156 58003
KHTL 190453Z AUTO 07004KT 10SM BKN070 BKN110 16/12 A2988 RMK AO2 SLP116 T01610122 402500094
KHTL 190353Z AUTO 03003KT 10SM BKN070 BKN095 17/12 A2989 RMK AO2 SLP120 T01670117
KHTL 190253Z AUTO 05004KT 10SM OVC070 18/12 A2989 RMK AO2 SLP119 T01780117 52005
KHTL 190153Z AUTO 03003KT 10SM FEW075 OVC110 19/12 A2988 RMK AO2 SLP117 T01890117
KHTL 190053Z AUTO 35007KT 10SM SCT060 BKN080 OVC120 21/12 A2988 RMK AO2 SLP116 T02060117
KHTL 182353Z AUTO 25005KT 10SM FEW065 23/13 A2987 RMK AO2 SLP112 T02280128 10250 20222 55007
KHTL 182253Z AUTO 25006KT 10SM BKN110 24/12 A2987 RMK AO2 SLP114 T02390122
KHTL 182153Z AUTO 24006KT 10SM CLR 24/11 A2988 RMK AO2 SLP118 T02440111
KHTL 182053Z AUTO 26006KT 10SM FEW065 24/12 A2989 RMK AO2 SLP121 T02440117 58015
KHTL 181953Z AUTO VRB05KT 10SM BKN043 OVC050 23/13 A2992 RMK AO2 SLP130 T02330128
KHTL 181853Z AUTO 21005KT 10SM CLR 24/12 A2992 RMK AO2 SLP131 T02440117
KHTL 181753Z AUTO 22007KT 10SM CLR 23/11 A2994 RMK AO2 SLP137 T02330111 10233 20156 58010
KHTL 181653Z AUTO 00000KT 10SM FEW049 23/11 A2996 RMK AO2 SLP143 T02280106
KHTL 181553Z AUTO 22005KT 10SM CLR 22/11 A2996 RMK AO2 SLP145 T02170106
KHTL 181453Z AUTO 24005KT 10SM CLR 20/11 A2997 RMK AO2 SLP148 T02000111 58004
KHTL 181353Z AUTO 25004KT 10SM SCT046 18/12 A2998 RMK AO2 SLP149 T01830122